UZB755 UZTT-UBBB
Flight info
| Callsign | UZB755 |
|---|---|
| Flight time | N/A |
| Altitude | 34000 |
| Route | N0460F340 DIBAD N193 OGOLI T898 DARVA B476 TIMGA A480 KRS B143 TUNEK A909 RODAR M11 AMOKU |
| Aircraft | A20N/M-VGDW/C |
Departure
| Time | 2026-04-16 14:13 |
|---|---|
| Airport | Tashkent International Airport (UZTT) |
Arrival
| Time | N/A |
|---|---|
| Airport | Heydar Aliyev International Airport (UBBB) |
| Time | Latitude | Longitude | Altitude | Speed | Heading |
|---|---|---|---|---|---|
| 2026-04-16 13:29 | 41.25982 | 69.27233 | 1424 ft | 0 kts | 82° |
| 2026-04-16 14:06 | 41.25985 | 69.27255 | 1424 ft | 6 kts | 79° |
| 2026-04-16 14:06 | 41.26028 | 69.27282 | 1424 ft | 9 kts | 333° |
| 2026-04-16 14:07 | 41.26051 | 69.27209 | 1424 ft | 9 kts | 238° |
| 2026-04-16 14:07 | 41.26014 | 69.27132 | 1424 ft | 10 kts | 245° |
| 2026-04-16 14:07 | 41.25983 | 69.27045 | 1424 ft | 10 kts | 242° |
| 2026-04-16 14:07 | 41.25949 | 69.26957 | 1424 ft | 10 kts | 243° |
| 2026-04-16 14:08 | 41.25914 | 69.26865 | 1424 ft | 11 kts | 242° |
| 2026-04-16 14:08 | 41.25881 | 69.26772 | 1424 ft | 10 kts | 246° |
| 2026-04-16 14:08 | 41.25849 | 69.26674 | 1424 ft | 13 kts | 245° |
| 2026-04-16 14:08 | 41.25812 | 69.26568 | 1424 ft | 12 kts | 245° |
| 2026-04-16 14:09 | 41.25783 | 69.26481 | 1424 ft | 10 kts | 245° |
| 2026-04-16 14:09 | 41.25742 | 69.26410 | 1424 ft | 10 kts | 213° |
| 2026-04-16 14:09 | 41.25677 | 69.26369 | 1424 ft | 10 kts | 216° |
| 2026-04-16 14:09 | 41.25644 | 69.26281 | 1424 ft | 11 kts | 262° |
| 2026-04-16 14:10 | 41.25633 | 69.26174 | 1424 ft | 12 kts | 260° |
| 2026-04-16 14:10 | 41.25620 | 69.26062 | 1424 ft | 12 kts | 261° |
| 2026-04-16 14:10 | 41.25606 | 69.25937 | 1424 ft | 14 kts | 261° |
| 2026-04-16 14:10 | 41.25590 | 69.25819 | 1424 ft | 9 kts | 234° |
| 2026-04-16 14:11 | 41.25529 | 69.25800 | 1424 ft | 9 kts | 172° |
| 2026-04-16 14:11 | 41.25459 | 69.25814 | 1424 ft | 9 kts | 173° |
| 2026-04-16 14:11 | 41.25411 | 69.25835 | 1424 ft | 5 kts | 122° |
| 2026-04-16 14:11 | 41.25409 | 69.25879 | 1424 ft | 4 kts | 82° |
| 2026-04-16 14:12 | 41.25421 | 69.26006 | 1424 ft | 34 kts | 84° |
| 2026-04-16 14:12 | 41.25494 | 69.26640 | 1424 ft | 101 kts | 81° |
| 2026-04-16 14:12 | 41.25622 | 69.27814 | 1425 ft | 155 kts | 81° |
| 2026-04-16 14:12 | 41.25804 | 69.29394 | 1630 ft | 182 kts | 85° |
| 2026-04-16 14:13 | 41.25990 | 69.31026 | 2284 ft | 180 kts | 84° |
| 2026-04-16 14:13 | 41.26161 | 69.32682 | 2930 ft | 182 kts | 86° |
| 2026-04-16 14:13 | 41.26320 | 69.34341 | 3535 ft | 186 kts | 84° |
| 2026-04-16 14:13 | 41.26464 | 69.36047 | 4147 ft | 189 kts | 86° |
| 2026-04-16 14:14 | 41.26621 | 69.37796 | 4700 ft | 193 kts | 84° |
| 2026-04-16 14:14 | 41.26810 | 69.39616 | 5081 ft | 206 kts | 82° |
| 2026-04-16 14:14 | 41.27049 | 69.41540 | 5467 ft | 219 kts | 81° |
| 2026-04-16 14:14 | 41.27309 | 69.43603 | 5826 ft | 236 kts | 81° |
| 2026-04-16 14:15 | 41.27560 | 69.45745 | 6564 ft | 235 kts | 81° |
| 2026-04-16 14:15 | 41.27804 | 69.47887 | 7264 ft | 237 kts | 82° |
| 2026-04-16 14:15 | 41.28122 | 69.50047 | 7758 ft | 248 kts | 68° |
| 2026-04-16 14:15 | 41.29169 | 69.51888 | 8100 ft | 261 kts | 29° |
| 2026-04-16 14:16 | 41.30895 | 69.52619 | 8469 ft | 265 kts | 352° |
| 2026-04-16 14:16 | 41.32630 | 69.51902 | 8864 ft | 264 kts | 316° |
| 2026-04-16 14:16 | 41.33714 | 69.50022 | 9305 ft | 260 kts | 281° |
| 2026-04-16 14:16 | 41.33760 | 69.47715 | 10040 ft | 253 kts | 254° |
| 2026-04-16 14:17 | 41.33348 | 69.45431 | 10783 ft | 258 kts | 255° |
| 2026-04-16 14:17 | 41.33059 | 69.43000 | 11168 ft | 276 kts | 259° |
| 2026-04-16 14:17 | 41.32853 | 69.40400 | 11614 ft | 291 kts | 261° |
| 2026-04-16 14:17 | 41.32701 | 69.37704 | 12328 ft | 295 kts | 262° |
| 2026-04-16 14:18 | 41.32584 | 69.35014 | 13084 ft | 297 kts | 262° |
| 2026-04-16 14:18 | 41.32483 | 69.32263 | 13823 ft | 300 kts | 262° |
| 2026-04-16 14:18 | 41.32392 | 69.29470 | 14523 ft | 303 kts | 262° |
| 2026-04-16 14:18 | 41.32312 | 69.26704 | 15223 ft | 306 kts | 262° |
| 2026-04-16 14:19 | 41.32234 | 69.23865 | 15934 ft | 307 kts | 262° |
| 2026-04-16 14:19 | 41.32161 | 69.21048 | 16606 ft | 309 kts | 262° |
| 2026-04-16 14:19 | 41.32085 | 69.18166 | 17269 ft | 312 kts | 262° |
| 2026-04-16 14:19 | 41.32012 | 69.15322 | 17898 ft | 314 kts | 263° |
| 2026-04-16 14:20 | 41.31938 | 69.12405 | 18545 ft | 316 kts | 263° |
| 2026-04-16 14:20 | 41.31863 | 69.09474 | 19143 ft | 319 kts | 263° |
| 2026-04-16 14:20 | 41.31787 | 69.06548 | 19686 ft | 323 kts | 263° |
| 2026-04-16 14:20 | 41.31710 | 69.03543 | 20266 ft | 326 kts | 263° |
| 2026-04-16 14:21 | 41.31632 | 69.00552 | 20835 ft | 328 kts | 263° |
| 2026-04-16 14:21 | 41.31552 | 68.97509 | 21389 ft | 331 kts | 263° |
| 2026-04-16 14:21 | 41.31471 | 68.94432 | 21919 ft | 334 kts | 263° |
| 2026-04-16 14:21 | 41.31388 | 68.91336 | 22456 ft | 337 kts | 263° |
| 2026-04-16 14:22 | 41.31305 | 68.88260 | 22994 ft | 339 kts | 263° |
| 2026-04-16 14:22 | 41.31220 | 68.85111 | 23520 ft | 341 kts | 263° |
| 2026-04-16 14:22 | 41.31133 | 68.81988 | 24026 ft | 343 kts | 263° |
| 2026-04-16 14:22 | 41.31044 | 68.78786 | 24533 ft | 345 kts | 263° |
| 2026-04-16 14:23 | 41.30954 | 68.75599 | 24982 ft | 349 kts | 263° |
| 2026-04-16 14:23 | 41.30862 | 68.72392 | 25426 ft | 351 kts | 263° |
| 2026-04-16 14:23 | 41.30769 | 68.69151 | 25860 ft | 354 kts | 263° |
| 2026-04-16 14:23 | 41.30674 | 68.65866 | 26271 ft | 357 kts | 263° |
| 2026-04-16 14:24 | 41.30579 | 68.62595 | 26689 ft | 359 kts | 263° |
| 2026-04-16 14:24 | 41.30483 | 68.59299 | 27106 ft | 361 kts | 264° |
| 2026-04-16 14:24 | 41.30383 | 68.55931 | 27476 ft | 363 kts | 263° |
| 2026-04-16 14:24 | 41.30280 | 68.52551 | 27847 ft | 366 kts | 264° |
| 2026-04-16 14:25 | 41.30179 | 68.49191 | 28222 ft | 368 kts | 263° |
| 2026-04-16 14:25 | 41.30074 | 68.45772 | 28570 ft | 370 kts | 264° |
| 2026-04-16 14:25 | 41.29966 | 68.42366 | 28916 ft | 372 kts | 264° |
| 2026-04-16 14:25 | 41.29859 | 68.38959 | 29263 ft | 373 kts | 264° |
| 2026-04-16 14:26 | 41.29753 | 68.35524 | 29664 ft | 374 kts | 264° |
| 2026-04-16 14:26 | 41.29645 | 68.32101 | 30148 ft | 372 kts | 263° |
| 2026-04-16 14:26 | 41.29534 | 68.28687 | 30653 ft | 370 kts | 263° |
| 2026-04-16 14:26 | 41.29425 | 68.25295 | 31086 ft | 368 kts | 263° |
| 2026-04-16 14:27 | 41.29313 | 68.21883 | 31463 ft | 367 kts | 263° |
| 2026-04-16 14:27 | 41.29200 | 68.18482 | 31806 ft | 367 kts | 263° |
| 2026-04-16 14:27 | 41.29088 | 68.15144 | 32138 ft | 366 kts | 263° |
| 2026-04-16 14:27 | 41.28975 | 68.11764 | 32465 ft | 366 kts | 263° |
| 2026-04-16 14:28 | 41.28859 | 68.08375 | 32736 ft | 366 kts | 263° |
| 2026-04-16 14:28 | 41.28742 | 68.05012 | 32987 ft | 367 kts | 263° |
| 2026-04-16 14:28 | 41.28627 | 68.01656 | 33230 ft | 368 kts | 264° |
| 2026-04-16 14:28 | 41.28585 | 67.98229 | 33465 ft | 370 kts | 266° |